Time;durP1;ratioP1;P1;durP2;ratioP2;P2;SDS_P1;SDS_P2;PMS_P1;PMS_P2;Temp;Humidity;BMP_temperature;BMP_pressure;BME280_temperature;BME280_humidity;BME280_pressure;Samples;Min_cycle;Max_cycle;Signal;HPM_P1;HPM_P2
2022/08/15 00:01:08;;;;;;;10.60;8.70;;;21.90;99.90;;;;;;5110830;28;20502;-74
2022/08/15 00:03:37;;;;;;;10.80;7.90;;;21.80;99.90;;;;;;5111978;28;20036;-74
2022/08/15 00:06:09;;;;;;;10.85;7.90;;;21.90;99.90;;;;;;5110690;28;20390;-75
2022/08/15 00:08:37;;;;;;;11.63;7.93;;;21.90;99.90;;;;;;5112382;28;20020;-75
2022/08/15 00:11:10;;;;;;;16.25;9.60;;;22.00;99.90;;;;;;5111520;28;20040;-74
2022/08/15 00:13:37;;;;;;;11.63;8.50;;;22.00;99.90;;;;;;5112071;28;20036;-75
2022/08/15 00:16:05;;;;;;;10.13;8.18;;;22.00;99.90;;;;;;5112006;28;20068;-74
2022/08/15 00:18:31;;;;;;;11.45;8.77;;;21.90;99.90;;;;;;5110666;28;20038;-74
2022/08/15 00:20:57;;;;;;;;;;;21.80;99.90;;;;;;5110810;28;20074;-74
2022/08/15 00:23:26;;;;;;;12.18;8.50;;;21.80;99.90;;;;;;5110478;28;19946;-75
2022/08/15 00:25:55;;;;;;;10.70;8.07;;;21.80;99.90;;;;;;5111779;28;20421;-74
2022/08/15 00:28:21;;;;;;;11.50;8.23;;;21.80;99.90;;;;;;5111812;28;20558;-74
2022/08/15 00:30:47;;;;;;;10.93;8.30;;;21.80;99.90;;;;;;5111685;28;20035;-75
2022/08/15 00:33:14;;;;;;;11.00;8.18;;;21.90;99.90;;;;;;5111684;28;20034;-74
2022/08/15 00:35:46;;;;;;;10.07;7.50;;;21.90;99.90;;;;;;5111573;27;20822;-74
2022/08/15 00:38:16;;;;;;;10.95;8.10;;;21.90;99.90;;;;;;5111561;28;20658;-75
2022/08/15 00:43:34;;;;;;;11.70;8.32;;;21.90;99.90;;;;;;5111767;28;20501;-74
2022/08/15 00:46:02;;;;;;;11.77;8.30;;;21.80;99.90;;;;;;5110107;28;20079;-74
2022/08/15 00:48:42;;;;;;;11.45;8.00;;;21.80;99.90;;;;;;5109948;28;20047;-74
2022/08/15 00:51:31;;;;;;;12.73;7.90;;;21.80;99.90;;;;;;5109577;28;20024;-74
2022/08/15 00:54:07;;;;;;;10.90;8.10;;;21.70;99.90;;;;;;5111652;28;20027;-74
2022/08/15 00:56:51;;;;;;;13.57;7.75;;;21.80;99.90;;;;;;5110710;28;20036;-75
2022/08/15 00:59:23;;;;;;;11.88;8.13;;;21.80;99.90;;;;;;5111474;28;20027;-74
2022/08/15 01:01:48;;;;;;;12.02;7.97;;;21.80;99.90;;;;;;5110149;28;20430;-74
2022/08/15 01:04:15;;;;;;;11.13;8.73;;;21.80;99.90;;;;;;5109608;28;20031;-75
2022/08/15 01:06:42;;;;;;;9.50;7.75;;;21.80;99.90;;;;;;5109678;28;20031;-74
2022/08/15 01:09:09;;;;;;;10.27;7.57;;;21.70;99.90;;;;;;5109888;28;20035;-75
2022/08/15 01:11:42;;;;;;;10.55;7.38;;;21.70;99.90;;;;;;5109333;28;20031;-74
2022/08/15 01:14:08;;;;;;;10.07;7.97;;;21.80;99.90;;;;;;5109564;28;20100;-74
2022/08/15 01:16:38;;;;;;;10.35;7.80;;;21.80;99.90;;;;;;5109649;28;20035;-74
2022/08/15 01:19:15;;;;;;;11.00;7.45;;;21.70;99.90;;;;;;5110878;28;20023;-74
2022/08/15 01:21:50;;;;;;;9.90;8.10;;;21.80;99.90;;;;;;5109886;28;20023;-75
2022/08/15 01:24:19;;;;;;;11.75;7.50;;;21.70;99.90;;;;;;5110905;28;20430;-74
2022/08/15 01:26:45;;;;;;;12.30;7.43;;;21.80;99.90;;;;;;5110354;28;20027;-74
2022/08/15 01:29:15;;;;;;;10.80;7.80;;;21.70;99.90;;;;;;5110075;28;20027;-74
2022/08/15 01:31:40;;;;;;;11.32;7.75;;;21.70;99.90;;;;;;5108781;28;20481;-74
2022/08/15 01:34:06;;;;;;;12.10;9.03;;;21.60;99.90;;;;;;5110579;28;20023;-74
2022/08/15 01:36:33;;;;;;;11.57;8.00;;;21.60;99.90;;;;;;5110611;28;20529;-74
2022/08/15 01:39:08;;;;;;;9.15;7.43;;;21.60;99.90;;;;;;5110389;28;20308;-74
2022/08/15 01:41:33;;;;;;;9.07;7.68;;;21.60;99.90;;;;;;5109211;28;20046;-74
2022/08/15 01:44:17;;;;;;;10.83;7.77;;;21.60;99.90;;;;;;5110045;28;20039;-74
2022/08/15 01:46:54;;;;;;;10.60;7.72;;;21.60;99.90;;;;;;5109048;28;20028;-74
2022/08/15 01:49:29;;;;;;;9.48;8.07;;;21.50;99.90;;;;;;5110610;28;20035;-75
2022/08/15 01:51:58;;;;;;;10.65;8.20;;;21.50;99.90;;;;;;5110525;28;20483;-74
2022/08/15 01:54:29;;;;;;;9.63;7.63;;;21.60;99.90;;;;;;5110990;28;20023;-75
2022/08/15 01:56:54;;;;;;;11.25;8.25;;;21.50;99.90;;;;;;5108618;28;20503;-74
2022/08/15 01:59:22;;;;;;;11.23;7.30;;;21.50;99.90;;;;;;5110721;28;20035;-74
2022/08/15 02:01:56;;;;;;;13.02;8.10;;;21.40;99.90;;;;;;5108986;28;20271;-74
2022/08/15 02:04:29;;;;;;;11.15;8.07;;;21.40;99.90;;;;;;5110631;28;20073;-75
2022/08/15 02:06:57;;;;;;;13.80;8.00;;;21.40;99.90;;;;;;5109027;28;20027;-74
2022/08/15 02:09:24;;;;;;;11.02;7.85;;;21.30;99.90;;;;;;5108296;28;20457;-74
2022/08/15 02:11:50;;;;;;;8.93;7.05;;;21.40;99.90;;;;;;5109942;28;20034;-74
2022/08/15 02:14:16;;;;;;;;;;;21.30;99.90;;;;;;5111082;28;20061;-74
2022/08/15 02:16:42;;;;;;;11.80;7.85;;;21.30;99.90;;;;;;5110183;28;19911;-75
2022/08/15 02:19:10;;;;;;;10.88;8.13;;;21.30;99.90;;;;;;5110357;28;20031;-74
2022/08/15 02:21:38;;;;;;;10.43;7.50;;;21.30;99.90;;;;;;5108602;28;20126;-74
2022/08/15 02:24:10;;;;;;;9.80;7.65;;;21.30;99.90;;;;;;5110495;28;20119;-74
2022/08/15 02:26:35;;;;;;;9.30;7.60;;;21.20;99.90;;;;;;5109971;28;20520;-74
2022/08/15 02:29:02;;;;;;;12.03;8.40;;;21.20;99.90;;;;;;5110357;28;20121;-75
2022/08/15 02:31:31;;;;;;;11.00;7.70;;;21.10;99.90;;;;;;5109985;28;20076;-75
2022/08/15 02:33:59;;;;;;;9.93;7.60;;;21.10;99.90;;;;;;5108885;28;20059;-74
2022/08/15 02:36:26;;;;;;;12.48;8.15;;;21.20;99.90;;;;;;5109780;28;20471;-75
2022/08/15 02:38:53;;;;;;;9.02;7.78;;;21.10;99.90;;;;;;5108686;28;20065;-74
2022/08/15 02:41:20;;;;;;;;;;;21.10;99.90;;;;;;5110949;28;20055;-75
2022/08/15 02:43:47;;;;;;;11.15;7.63;;;21.00;99.90;;;;;;5113912;28;19916;-74
2022/08/15 02:46:16;;;;;;;10.07;7.22;;;21.00;99.90;;;;;;5113938;28;20415;-74
2022/08/15 02:48:43;;;;;;;11.32;8.52;;;21.00;99.90;;;;;;5113866;28;20119;-75
2022/08/15 02:51:12;;;;;;;10.90;7.85;;;21.00;99.90;;;;;;5113236;28;20031;-74
2022/08/15 02:53:38;;;;;;;10.85;8.02;;;21.00;99.90;;;;;;5113875;27;20051;-74
2022/08/15 02:56:07;;;;;;;13.15;7.68;;;21.00;99.90;;;;;;5113370;28;20534;-74
2022/08/15 02:58:34;;;;;;;12.43;8.57;;;21.00;99.90;;;;;;5113232;28;20039;-74
2022/08/15 03:01:00;;;;;;;11.52;7.95;;;21.00;99.90;;;;;;5113462;28;20055;-75
2022/08/15 03:03:26;;;;;;;10.88;8.07;;;21.00;99.90;;;;;;5112216;28;20039;-74
2022/08/15 03:05:52;;;;;;;11.10;8.38;;;21.00;99.90;;;;;;5113320;28;20124;-75
2022/08/15 03:08:20;;;;;;;12.02;8.85;;;21.00;99.90;;;;;;5113367;28;20127;-75
2022/08/15 03:10:46;;;;;;;11.02;8.38;;;21.00;99.90;;;;;;5113358;28;20102;-75
2022/08/15 03:13:14;;;;;;;11.73;8.63;;;21.00;99.90;;;;;;5111736;28;20031;-75
2022/08/15 03:15:52;;;;;;;9.90;7.88;;;21.00;99.90;;;;;;5111948;28;20048;-74
2022/08/15 03:18:20;;;;;;;10.68;8.25;;;21.00;99.90;;;;;;5113381;28;20032;-74
2022/08/15 03:20:47;;;;;;;11.05;8.27;;;20.90;99.90;;;;;;5113025;28;20022;-74
2022/08/15 03:23:13;;;;;;;12.05;8.32;;;20.90;99.90;;;;;;5113337;28;20036;-74
2022/08/15 03:25:40;;;;;;;11.27;8.82;;;20.90;99.90;;;;;;5112944;28;20055;-74
2022/08/15 03:28:07;;;;;;;12.35;8.10;;;20.90;99.90;;;;;;5112844;28;20397;-74
2022/08/15 03:30:33;;;;;;;9.82;8.27;;;20.80;99.90;;;;;;5112713;28;20420;-74
2022/08/15 03:32:59;;;;;;;10.55;8.57;;;20.80;99.90;;;;;;5112879;28;20424;-74
2022/08/15 03:35:29;;;;;;;10.65;8.43;;;20.80;99.90;;;;;;5113185;28;20077;-73
2022/08/15 03:37:56;;;;;;;11.90;8.63;;;20.70;99.90;;;;;;5112754;28;20031;-74
2022/08/15 03:40:22;;;;;;;15.43;8.80;;;20.70;99.90;;;;;;5112811;28;20038;-74
2022/08/15 03:42:57;;;;;;;13.13;8.82;;;20.70;99.90;;;;;;5111326;28;20030;-74
2022/08/15 03:45:24;;;;;;;11.93;8.93;;;20.70;99.90;;;;;;5113143;28;20487;-75
2022/08/15 03:47:50;;;;;;;12.23;8.25;;;20.70;99.90;;;;;;5111328;28;20364;-74
2022/08/15 03:50:16;;;;;;;11.83;8.40;;;20.70;99.90;;;;;;5111429;28;20062;-75
2022/08/15 03:52:55;;;;;;;13.80;9.00;;;20.60;99.90;;;;;;5112163;28;20523;-74
2022/08/15 03:55:22;;;;;;;17.10;9.00;;;20.60;99.90;;;;;;5112945;28;20499;-75
2022/08/15 03:57:48;;;;;;;12.60;8.63;;;20.60;99.90;;;;;;5112099;28;20084;-75
2022/08/15 04:00:17;;;;;;;10.82;8.45;;;20.60;99.90;;;;;;5112592;28;20035;-75
2022/08/15 04:02:43;;;;;;;9.93;8.32;;;20.50;99.90;;;;;;5112539;28;20043;-75
2022/08/15 04:05:09;;;;;;;10.70;8.87;;;20.50;99.90;;;;;;5112910;28;20274;-75
2022/08/15 04:07:36;;;;;;;11.50;8.30;;;20.50;99.90;;;;;;5112416;28;20043;-75
2022/08/15 04:10:16;;;;;;;12.05;9.38;;;20.50;99.90;;;;;;5110849;28;20046;-75
2022/08/15 04:12:44;;;;;;;10.40;9.15;;;20.50;99.90;;;;;;5110498;28;20056;-75
2022/08/15 04:15:12;;;;;;;13.13;8.63;;;20.50;99.90;;;;;;5112601;28;20035;-75
2022/08/15 04:17:38;;;;;;;12.05;8.90;;;20.50;99.90;;;;;;5112349;28;20376;-74
2022/08/15 04:20:06;;;;;;;13.50;9.17;;;20.50;99.90;;;;;;5110590;28;20526;-74
2022/08/15 04:22:35;;;;;;;11.32;8.93;;;20.50;99.90;;;;;;5110547;28;20612;-74
2022/08/15 04:25:13;;;;;;;13.18;10.13;;;20.50;99.90;;;;;;5110408;28;20034;-75
2022/08/15 04:27:39;;;;;;;11.80;8.73;;;20.50;99.90;;;;;;5111970;28;20474;-74
2022/08/15 04:30:06;;;;;;;12.32;9.90;;;20.50;99.90;;;;;;5112815;28;20039;-74
2022/08/15 04:32:31;;;;;;;;;;;20.50;99.90;;;;;;5110795;28;20028;-75
2022/08/15 04:34:59;;;;;;;14.88;9.27;;;20.50;99.90;;;;;;5111780;28;19912;-74
2022/08/15 04:37:26;;;;;;;13.70;10.20;;;20.50;99.90;;;;;;5110413;28;20019;-74
2022/08/15 04:39:53;;;;;;;11.40;9.10;;;20.50;99.90;;;;;;5112129;28;20043;-74
2022/08/15 04:42:19;;;;;;;;;;;20.50;99.90;;;;;;5112316;28;20020;-75
2022/08/15 04:44:48;;;;;;;11.60;9.27;;;20.60;99.90;;;;;;5111249;28;19965;-75
2022/08/15 04:47:14;;;;;;;13.07;9.23;;;20.60;99.90;;;;;;5111278;28;20089;-74
2022/08/15 04:49:40;;;;;;;11.77;9.03;;;20.70;99.90;;;;;;5111728;28;20434;-75
2022/08/15 04:52:11;;;;;;;;;;;20.70;99.90;;;;;;5111613;28;20055;-75
2022/08/15 04:54:38;;;;;;;14.18;9.73;;;20.80;99.90;;;;;;5110319;28;20315;-75
2022/08/15 04:57:04;;;;;;;11.98;9.43;;;20.80;99.90;;;;;;5111157;28;20070;-74
2022/08/15 04:59:30;;;;;;;10.90;9.52;;;20.80;99.90;;;;;;5109958;28;20039;-74
2022/08/15 05:01:56;;;;;;;14.37;10.07;;;20.90;99.90;;;;;;5110132;28;20039;-74
2022/08/15 05:04:22;;;;;;;14.48;9.30;;;20.90;99.90;;;;;;5111004;28;20468;-74
2022/08/15 05:06:47;;;;;;;14.10;10.15;;;20.90;99.90;;;;;;5110501;28;20028;-75
2022/08/15 05:09:13;;;;;;;10.57;8.70;;;20.90;99.90;;;;;;5111385;28;20040;-75
2022/08/15 05:11:39;;;;;;;12.00;9.50;;;20.90;99.90;;;;;;5111276;28;20383;-75
2022/08/15 05:14:04;;;;;;;11.97;9.23;;;20.90;99.90;;;;;;5109391;28;20032;-74
2022/08/15 05:16:32;;;;;;;13.17;9.97;;;21.00;99.90;;;;;;5109707;28;20115;-74
2022/08/15 05:18:58;;;;;;;11.15;8.63;;;21.00;99.90;;;;;;5111345;28;20383;-74
2022/08/15 05:21:24;;;;;;;13.25;9.98;;;21.00;99.90;;;;;;5110104;28;20024;-74
2022/08/15 05:23:50;;;;;;;9.67;8.53;;;21.10;99.90;;;;;;5111118;28;20043;-75
2022/08/15 05:26:16;;;;;;;11.80;9.20;;;21.10;99.90;;;;;;5111293;28;20054;-75
2022/08/15 05:28:42;;;;;;;11.32;9.07;;;21.20;99.90;;;;;;5110992;28;20139;-74
2022/08/15 05:31:09;;;;;;;13.40;9.97;;;21.40;99.90;;;;;;5111150;28;20580;-74
2022/08/15 05:33:35;;;;;;;12.07;9.05;;;21.50;99.90;;;;;;5109525;28;20122;-75
2022/08/15 05:36:04;;;;;;;11.02;9.43;;;21.70;99.90;;;;;;5110941;28;20038;-74
2022/08/15 05:38:35;;;;;;;12.85;9.65;;;21.70;99.90;;;;;;5110646;28;20032;-75
2022/08/15 05:41:32;;;;;;;13.70;10.27;;;21.70;99.90;;;;;;5109567;28;20571;-75
2022/08/15 05:44:19;;;;;;;14.70;11.35;;;21.70;99.90;;;;;;5110487;28;20497;-75
2022/08/15 05:46:46;;;;;;;15.43;10.18;;;21.80;99.90;;;;;;5090463;28;20534;-74
2022/08/15 05:49:50;;;;;;;14.23;10.35;;;21.90;99.90;;;;;;5090787;28;20157;-75
2022/08/15 05:52:37;;;;;;;12.48;8.63;;;22.10;99.90;;;;;;5089543;28;20040;-74
2022/08/15 05:55:18;;;;;;;11.45;8.85;;;22.20;99.90;;;;;;5110988;28;20035;-75
2022/08/15 05:58:06;;;;;;;14.10;9.95;;;22.20;99.90;;;;;;5109258;28;20051;-74
2022/08/15 06:00:33;;;;;;;11.70;9.40;;;22.30;99.90;;;;;;5110181;28;20031;-74
2022/08/15 06:03:11;;;;;;;11.93;8.88;;;22.20;99.90;;;;;;5110450;28;20038;-74
2022/08/15 06:05:46;;;;;;;11.48;9.40;;;22.20;99.90;;;;;;5110561;28;20015;-74
2022/08/15 06:08:18;;;;;;;10.07;8.55;;;22.20;99.90;;;;;;5110276;28;20319;-74
2022/08/15 06:10:50;;;;;;;12.98;8.60;;;22.20;99.90;;;;;;5108959;28;20099;-74
2022/08/15 06:13:27;;;;;;;10.98;8.88;;;22.20;99.90;;;;;;5110456;28;20042;-74
2022/08/15 06:16:01;;;;;;;12.27;9.32;;;22.20;99.90;;;;;;5112213;28;20498;-76
2022/08/15 06:18:29;;;;;;;12.73;9.50;;;22.20;99.90;;;;;;5114569;28;20090;-75
2022/08/15 06:21:01;;;;;;;11.15;8.75;;;22.10;99.90;;;;;;5114535;28;20031;-75
2022/08/15 06:24:04;;;;;;;12.30;8.57;;;22.10;99.90;;;;;;5114199;28;20150;-75
2022/08/15 06:26:32;;;;;;;10.07;8.18;;;22.20;99.90;;;;;;5112946;28;20024;-75
2022/08/15 06:29:13;;;;;;;11.75;8.77;;;22.30;99.90;;;;;;5112852;28;20276;-75
2022/08/15 06:31:46;;;;;;;11.63;8.73;;;22.40;99.90;;;;;;5113637;28;20036;-74
2022/08/15 06:34:27;;;;;;;10.68;8.20;;;22.50;99.90;;;;;;5113700;28;20035;-75
2022/08/15 06:37:23;;;;;;;11.77;8.73;;;22.60;99.90;;;;;;5093689;28;20154;-75
2022/08/15 06:40:23;;;;;;;11.60;8.57;;;22.70;99.90;;;;;;5104603;28;20036;-74
2022/08/15 06:42:49;;;;;;;13.82;8.95;;;22.70;99.90;;;;;;5112852;28;20439;-75
2022/08/15 06:45:27;;;;;;;11.30;7.82;;;22.80;99.90;;;;;;5114193;28;20030;-75
2022/08/15 06:48:07;;;;;;;12.68;8.20;;;22.80;99.90;;;;;;5114252;28;20024;-74
2022/08/15 06:51:03;;;;;;;11.73;7.90;;;23.00;99.90;;;;;;5113800;28;20482;-74
2022/08/15 06:53:50;;;;;;;10.00;8.10;;;23.00;99.90;;;;;;5095725;28;20051;-74
2022/08/15 06:56:24;;;;;;;10.55;7.55;;;23.10;99.90;;;;;;5112612;28;20026;-74
2022/08/15 06:59:01;;;;;;;10.73;8.75;;;23.20;99.90;;;;;;5113526;28;20100;-74
2022/08/15 07:02:01;;;;;;;10.13;7.65;;;23.20;99.90;;;;;;5113354;28;20020;-74
2022/08/15 07:04:59;;;;;;;12.40;8.00;;;23.20;99.90;;;;;;5112197;28;20487;-75
2022/08/15 07:07:45;;;;;;;9.55;7.90;;;23.20;99.90;;;;;;5112211;28;20051;-74
2022/08/15 07:10:28;;;;;;;11.23;7.60;;;23.20;99.90;;;;;;5113569;28;20031;-74
2022/08/15 07:13:08;;;;;;;8.18;7.30;;;23.20;99.90;;;;;;5113604;28;20026;-74
2022/08/15 07:15:48;;;;;;;8.32;6.78;;;23.20;99.90;;;;;;5111595;28;20054;-75
2022/08/15 07:18:42;;;;;;;12.15;8.15;;;23.20;99.90;;;;;;5113098;28;20028;-75
2022/08/15 07:21:17;;;;;;;9.10;7.55;;;23.20;99.90;;;;;;5109827;28;20036;-74
2022/08/15 07:24:04;;;;;;;9.80;8.00;;;23.10;99.90;;;;;;5112707;28;20030;-75
2022/08/15 07:26:37;;;;;;;10.88;7.38;;;23.10;99.90;;;;;;5112629;28;20042;-74
2022/08/15 07:29:11;;;;;;;9.40;8.07;;;23.00;99.90;;;;;;5113083;28;20039;-75
2022/08/15 07:31:37;;;;;;;11.98;9.15;;;23.00;99.90;;;;;;5112740;28;20032;-75
2022/08/15 07:34:18;;;;;;;11.73;7.70;;;23.10;99.90;;;;;;5112976;28;20019;-74
2022/08/15 07:36:57;;;;;;;9.93;7.88;;;23.10;99.90;;;;;;5113043;28;20031;-74
2022/08/15 07:39:35;;;;;;;12.82;7.80;;;23.10;99.90;;;;;;5111346;28;20030;-63
2022/08/15 07:42:15;;;;;;;9.73;7.65;;;23.20;99.90;;;;;;5112156;28;20035;-66
2022/08/15 07:44:49;;;;;;;10.18;7.75;;;23.50;99.90;;;;;;5112924;28;20471;-67
2022/08/15 07:47:23;;;;;;;10.07;7.32;;;23.60;99.90;;;;;;5112401;27;20430;-66
2022/08/15 07:50:04;;;;;;;10.07;7.78;;;23.80;99.90;;;;;;5092457;28;20032;-66
2022/08/15 07:52:30;;;;;;;9.18;7.43;;;23.80;99.90;;;;;;5092214;28;20040;-66
2022/08/15 07:55:10;;;;;;;12.95;7.75;;;23.90;99.90;;;;;;5102995;28;20066;-66
2022/08/15 07:57:37;;;;;;;12.27;7.10;;;23.90;99.90;;;;;;5112199;28;20058;-66
2022/08/15 08:00:25;;;;;;;8.60;7.10;;;23.90;99.90;;;;;;5112563;28;20114;-66
2022/08/15 08:03:29;;;;;;;14.77;7.78;;;23.80;99.90;;;;;;5106199;28;20067;-67
2022/08/15 08:06:11;;;;;;;18.23;11.07;;;23.70;99.90;;;;;;5110222;28;20031;-67
2022/08/15 08:09:05;;;;;;;10.15;6.75;;;23.70;99.90;;;;;;5106132;28;20047;-66
2022/08/15 08:11:54;;;;;;;10.52;7.18;;;23.60;99.90;;;;;;5106538;28;20089;-67
2022/08/15 08:14:43;;;;;;;10.25;7.80;;;23.70;99.90;;;;;;5098793;28;20047;-67
2022/08/15 08:17:38;;;;;;;9.80;7.22;;;23.60;99.90;;;;;;5110868;28;20036;-67
2022/08/15 08:20:15;;;;;;;13.07;7.40;;;23.80;99.90;;;;;;5111923;28;20034;-67
2022/08/15 08:22:55;;;;;;;10.48;6.90;;;23.90;99.90;;;;;;5110758;28;20028;-66
2022/08/15 08:25:29;;;;;;;10.55;7.13;;;24.00;99.90;;;;;;5095167;28;20067;-67
2022/08/15 08:28:17;;;;;;;8.20;6.30;;;24.00;99.90;;;;;;5109816;28;20031;-67
2022/08/15 08:31:02;;;;;;;10.55;7.35;;;24.10;99.90;;;;;;5110397;28;20076;-69
2022/08/15 08:33:47;;;;;;;9.45;7.20;;;24.20;99.90;;;;;;5106767;28;20456;-66
2022/08/15 08:41:29;;;;;;;9.07;6.78;;;24.10;99.90;;;;;;5066554;28;20375;-64
2022/08/15 08:44:50;;;;;;;9.43;6.72;;;24.10;99.90;;;;;;5055901;28;20085;-65
2022/08/15 08:47:48;;;;;;;9.50;7.03;;;24.10;99.90;;;;;;5043743;28;20029;-65
2022/08/15 08:50:13;;;;;;;9.33;7.20;;;24.20;99.90;;;;;;5045954;28;20021;-65
2022/08/15 08:53:01;;;;;;;10.00;6.60;;;24.20;99.90;;;;;;5056898;28;20346;-66
2022/08/15 08:55:31;;;;;;;9.35;6.70;;;24.50;99.90;;;;;;5055250;28;20413;-66
2022/08/15 08:58:06;;;;;;;8.93;7.00;;;24.70;99.90;;;;;;5048344;28;20061;-67
2022/08/15 09:00:41;;;;;;;9.70;7.07;;;25.30;99.90;;;;;;5056902;28;20037;-66
2022/08/15 09:03:13;;;;;;;9.98;8.90;;;25.80;99.90;;;;;;5052298;28;20421;-67
2022/08/15 09:05:51;;;;;;;9.18;6.93;;;26.10;99.90;;;;;;5057375;28;20483;-65
2022/08/15 09:08:32;;;;;;;10.40;6.97;;;26.30;99.90;;;;;;5056406;28;20029;-66
2022/08/15 09:11:04;;;;;;;9.85;7.00;;;26.40;99.90;;;;;;5053260;28;20036;-67
2022/08/15 09:13:33;;;;;;;10.80;7.00;;;26.30;99.90;;;;;;5066409;28;20428;-67
2022/08/15 09:16:08;;;;;;;13.32;7.43;;;26.30;99.90;;;;;;5050812;28;20036;-66
2022/08/15 09:18:40;;;;;;;9.38;7.03;;;26.00;99.90;;;;;;5061579;28;20032;-66
2022/08/15 09:21:06;;;;;;;7.50;6.10;;;25.70;99.90;;;;;;5067287;28;20047;-66
2022/08/15 09:23:36;;;;;;;10.03;8.03;;;25.70;99.90;;;;;;5050497;28;20021;-66
2022/08/15 09:26:13;;;;;;;9.63;6.90;;;25.60;99.90;;;;;;5059242;28;20029;-69
2022/08/15 09:28:45;;;;;;;8.73;7.00;;;25.60;99.90;;;;;;5049590;28;20029;-67
2022/08/15 09:31:24;;;;;;;9.43;7.15;;;25.60;99.90;;;;;;5054940;28;20029;-67
2022/08/15 09:34:30;;;;;;;8.93;7.10;;;25.60;99.90;;;;;;5051789;28;20041;-67
2022/08/15 09:37:17;;;;;;;10.13;6.97;;;25.60;99.90;;;;;;5062946;28;20117;-66
2022/08/15 09:40:12;;;;;;;9.98;6.57;;;25.60;99.90;;;;;;5050754;28;20059;-67
2022/08/15 09:43:16;;;;;;;11.57;7.00;;;25.50;99.90;;;;;;5044181;28;20087;-66
2022/08/15 09:45:41;;;;;;;14.25;8.27;;;25.40;99.90;;;;;;5045243;28;20052;-66
2022/08/15 09:48:20;;;;;;;8.57;5.90;;;25.30;99.90;;;;;;5044800;28;20472;-65
2022/08/15 09:50:57;;;;;;;9.15;6.18;;;25.30;99.90;;;;;;5041707;28;20481;-66
2022/08/15 09:53:44;;;;;;;8.47;6.37;;;25.40;99.90;;;;;;5043020;28;20035;-66
2022/08/15 09:56:17;;;;;;;10.45;6.35;;;25.40;99.90;;;;;;5051539;28;20084;-66
2022/08/15 09:59:09;;;;;;;7.93;6.35;;;25.40;99.90;;;;;;5047526;28;20028;-66
2022/08/15 10:01:48;;;;;;;8.43;6.22;;;25.40;99.90;;;;;;5047146;28;20025;-66
2022/08/15 10:04:17;;;;;;;10.27;6.28;;;25.40;99.90;;;;;;5042481;28;20031;-66
2022/08/15 10:06:51;;;;;;;11.32;7.03;;;25.40;99.90;;;;;;5051301;28;20044;-66
2022/08/15 10:09:27;;;;;;;7.50;6.22;;;25.40;99.90;;;;;;5049820;28;20040;-66
2022/08/15 10:12:04;;;;;;;11.40;6.07;;;25.40;99.90;;;;;;5032000;28;20485;-66
2022/08/15 10:15:02;;;;;;;7.97;6.20;;;25.30;99.90;;;;;;5039326;28;20029;-67
2022/08/15 10:17:34;;;;;;;6.93;5.88;;;25.20;99.90;;;;;;5040799;28;20037;-67
2022/08/15 10:20:15;;;;;;;8.68;6.22;;;25.20;99.90;;;;;;5051714;28;20431;-67
2022/08/15 10:22:59;;;;;;;10.82;7.07;;;25.20;99.90;;;;;;5051604;28;20029;-66
2022/08/15 10:25:36;;;;;;;8.57;6.15;;;25.10;99.90;;;;;;5045653;28;20056;-67
2022/08/15 10:28:07;;;;;;;;;;;25.10;99.90;;;;;;5047795;28;20064;-68
2022/08/15 10:30:44;;;;;;;12.70;6.65;;;25.00;99.90;;;;;;5051017;28;19974;-68
2022/08/15 10:33:35;;;;;;;10.70;6.38;;;25.00;99.90;;;;;;5034762;28;20045;-67
2022/08/15 10:36:13;;;;;;;8.60;6.32;;;24.90;99.90;;;;;;5042364;28;20096;-67
2022/08/15 10:38:44;;;;;;;9.43;7.35;;;24.90;99.90;;;;;;5033163;28;20052;-67
2022/08/15 10:41:31;;;;;;;7.57;6.15;;;24.90;99.90;;;;;;5031187;28;20025;-67
2022/08/15 10:44:41;;;;;;;7.93;6.13;;;24.90;99.90;;;;;;5038208;28;20037;-67
2022/08/15 10:47:34;;;;;;;10.15;5.78;;;24.90;99.90;;;;;;5049063;28;20033;-66
2022/08/15 10:50:05;;;;;;;9.00;6.10;;;24.90;99.90;;;;;;5050671;28;20064;-66
2022/08/15 10:52:48;;;;;;;11.45;6.22;;;24.80;99.90;;;;;;5047395;28;20024;-66
2022/08/15 10:55:35;;;;;;;7.72;5.88;;;24.80;99.90;;;;;;5031027;28;20036;-66
2022/08/15 10:58:10;;;;;;;8.52;6.05;;;24.80;99.90;;;;;;5028600;28;20086;-67
2022/08/15 11:00:39;;;;;;;11.35;6.10;;;24.70;99.90;;;;;;5035628;28;20036;-67
2022/08/15 11:03:23;;;;;;;12.38;6.18;;;24.70;99.90;;;;;;5040743;28;20428;-67
2022/08/15 11:05:58;;;;;;;6.68;5.35;;;24.70;99.90;;;;;;5032985;28;20053;-67
2022/08/15 11:08:24;;;;;;;7.78;5.95;;;24.70;99.90;;;;;;5044034;28;20029;-67
2022/08/15 11:10:50;;;;;;;;;;;24.70;99.90;;;;;;5051430;28;20106;-67
2022/08/15 11:13:21;;;;;;;9.48;5.85;;;24.80;99.90;;;;;;5050587;28;20355;-67
2022/08/15 11:15:56;;;;;;;8.13;6.30;;;24.90;99.90;;;;;;5048489;28;20057;-66
2022/08/15 11:18:44;;;;;;;7.72;5.93;;;24.90;99.90;;;;;;5040171;28;20278;-67
2022/08/15 11:21:25;;;;;;;9.52;5.88;;;24.80;99.90;;;;;;5042330;28;20084;-67
2022/08/15 11:23:58;;;;;;;11.00;5.95;;;24.80;99.90;;;;;;5030666;28;20108;-66
2022/08/15 11:26:29;;;;;;;6.25;5.47;;;24.70;99.90;;;;;;5034554;28;20033;-66
2022/08/15 11:29:07;;;;;;;8.80;6.40;;;24.70;99.90;;;;;;5040794;28;20041;-67
2022/08/15 11:31:51;;;;;;;12.10;6.47;;;24.60;99.90;;;;;;5042804;28;20485;-66
2022/08/15 11:34:36;;;;;;;8.85;6.25;;;24.50;99.90;;;;;;5047220;28;20040;-66
2022/08/15 11:37:19;;;;;;;9.90;6.50;;;24.40;99.90;;;;;;5039123;28;20546;-66
2022/08/15 11:39:50;;;;;;;10.38;5.93;;;24.30;99.90;;;;;;5037585;28;20111;-66
2022/08/15 11:42:18;;;;;;;11.20;6.22;;;24.30;99.90;;;;;;5030279;28;20530;-66
2022/08/15 11:45:12;;;;;;;9.30;5.95;;;24.30;99.90;;;;;;5041952;28;20082;-66
2022/08/15 11:47:47;;;;;;;9.32;6.38;;;24.30;99.90;;;;;;5031569;28;20068;-65
2022/08/15 11:50:37;;;;;;;10.32;6.50;;;24.20;99.90;;;;;;5030301;28;20075;-67
2022/08/15 11:53:07;;;;;;;8.35;6.10;;;24.00;99.90;;;;;;5031834;28;20065;-66
2022/08/15 11:55:33;;;;;;;8.85;6.15;;;23.90;99.90;;;;;;5030031;28;20493;-67
2022/08/15 11:58:14;;;;;;;9.70;6.27;;;23.90;99.90;;;;;;5029957;28;20026;-67
2022/08/15 12:00:41;;;;;;;14.23;9.57;;;23.90;99.90;;;;;;5036591;28;20043;-65
2022/08/15 12:03:24;;;;;;;9.63;7.95;;;23.80;99.90;;;;;;5036762;28;20047;-66
2022/08/15 12:05:53;;;;;;;11.25;5.88;;;23.80;99.90;;;;;;5045656;28;20048;-66
2022/08/15 12:08:26;;;;;;;11.40;6.90;;;23.80;99.90;;;;;;5039593;28;20477;-66
2022/08/15 12:11:03;;;;;;;9.48;5.80;;;23.80;99.90;;;;;;5028289;28;20486;-65
2022/08/15 12:13:29;;;;;;;11.17;6.40;;;23.80;99.90;;;;;;5029181;28;20032;-66
2022/08/15 12:15:54;;;;;;;8.13;5.87;;;23.80;99.90;;;;;;5027823;28;20516;-66
2022/08/15 12:18:24;;;;;;;10.57;6.20;;;23.70;99.90;;;;;;5027780;28;20283;-66
2022/08/15 12:20:56;;;;;;;9.57;5.53;;;23.80;99.90;;;;;;5047829;28;20028;-66
2022/08/15 12:23:24;;;;;;;8.48;5.72;;;23.80;99.90;;;;;;5042876;28;20396;-67
2022/08/15 12:25:57;;;;;;;10.48;5.57;;;23.80;99.90;;;;;;5045965;28;20135;-66
2022/08/15 12:28:25;;;;;;;7.93;6.03;;;23.80;99.90;;;;;;5049040;28;20021;-66
2022/08/15 12:31:05;;;;;;;9.20;5.95;;;23.80;99.90;;;;;;5047941;28;20124;-66
2022/08/15 12:33:31;;;;;;;12.65;6.80;;;23.80;99.90;;;;;;5034474;28;20556;-65
2022/08/15 12:35:58;;;;;;;7.03;5.40;;;23.80;99.90;;;;;;5034085;28;20116;-65
2022/08/15 12:38:24;;;;;;;10.45;5.82;;;24.00;99.90;;;;;;5029712;28;20052;-65
2022/08/15 12:40:50;;;;;;;8.85;6.78;;;23.90;99.90;;;;;;5032048;28;20063;-66
2022/08/15 12:43:16;;;;;;;10.95;6.82;;;23.90;99.90;;;;;;5049112;28;20036;-67
2022/08/15 12:45:42;;;;;;;12.32;6.35;;;23.90;99.90;;;;;;5044712;28;20029;-66
2022/08/15 12:48:21;;;;;;;10.15;6.03;;;23.90;99.90;;;;;;5037421;28;20045;-66
2022/08/15 12:50:46;;;;;;;14.57;6.28;;;23.90;99.90;;;;;;5046500;28;20456;-66
2022/08/15 12:53:12;;;;;;;10.13;6.23;;;23.90;99.90;;;;;;5034536;28;20132;-66
2022/08/15 12:55:42;;;;;;;9.93;6.30;;;24.00;99.90;;;;;;5028746;28;20029;-66
2022/08/15 12:58:09;;;;;;;11.68;6.22;;;24.00;99.90;;;;;;5035095;28;20120;-66
2022/08/15 13:00:35;;;;;;;8.88;5.90;;;24.00;99.90;;;;;;5029379;28;20438;-67
2022/08/15 13:03:28;;;;;;;9.93;6.83;;;24.00;99.90;;;;;;5046219;28;20087;-66
2022/08/15 13:06:26;;;;;;;10.75;6.03;;;24.00;99.90;;;;;;5041187;28;20064;-66
2022/08/15 13:08:52;;;;;;;10.50;6.13;;;24.00;99.90;;;;;;5039894;28;20507;-66
2022/08/15 13:11:18;;;;;;;8.93;5.88;;;24.20;99.90;;;;;;5030761;28;20018;-66
2022/08/15 13:13:44;;;;;;;9.95;6.32;;;24.20;99.90;;;;;;5031972;28;20025;-67
2022/08/15 13:16:10;;;;;;;9.02;6.60;;;24.30;99.90;;;;;;5029537;28;20029;-66
2022/08/15 13:18:37;;;;;;;9.90;6.70;;;24.40;99.90;;;;;;5038956;28;20026;-67
2022/08/15 13:23:52;;;;;;;7.78;5.70;;;24.50;99.90;;;;;;5038119;28;19928;-66
2022/08/15 13:26:20;;;;;;;10.35;6.63;;;24.60;99.90;;;;;;5045539;28;20036;-67
2022/08/15 13:28:47;;;;;;;9.38;6.25;;;24.70;99.90;;;;;;5051504;28;20029;-67